Terminal Aerodrome Forecast
Issued by NWS

Home | Current Version | Previous Version | Text Only | Print | Product List | Glossary On
Versions: 1 2 3 4 5 6 7 8 9 10 11 12 13 14 15 16 17 18 19 20 21 22 23 24 25 26 27 28
000
FTUS42 KJAX 010023 RRA
TAFCRG
TAF
KCRG 010023Z 0100/0124 01013G18KT 3SM -DZ BR OVC006
      TEMPO 0101/0105 1/2SM -RA FG OVC003
     FM010500 03006G12KT 1SM -DZ BR OVC001
      TEMPO 0105/0108 1/4SM -RA FG
     FM010800 06006G12KT 1/4SM -DZ FG OVC001
     FM011400 06010KT 5SM BR VCSH OVC004
     FM011800 07005KT 4SM BR OVC007=

USA.gov is the U.S. government's official web portal to all federal, state and local government web resources and services.